Maloca, Brazil
Current Conditions -  °F | °C
As of 3:00 PM on Friday 28 Nov 2014 (Local Time) from SBSN Reporting Station
Few Clouds Few Clouds  
Wind Chill: 32°   Ceiling: Unl
Heat Index: 34°   Visibility: 6mi
Dew Point: 20°   Wind: 12mph
Humidity: 49%   Direction: 50°NE
Pressure: 29.8"   Gusts: NA
Location:  0.64°N, 55.97°W
Report Text: SBSN 281800Z 05010KT 9999 FEW025 32/20 Q1009
Loading
Personal Weather Stations






























Interactive Weather Map New forecast layout! Learn more

10-Day Weather Forecast

Advertisements
Track Severe Weather on mobile